createdAt,value
2017-10-21T00:00:12.196Z,11.10
2017-10-21T00:02:39.639Z,11.97
2017-10-21T00:05:07.057Z,11.20
2017-10-21T00:07:34.485Z,11.40
2017-10-21T00:10:01.929Z,12.30
2017-10-21T00:12:29.365Z,11.87
2017-10-21T00:14:56.785Z,12.40
2017-10-21T00:17:24.235Z,11.57
2017-10-21T00:19:51.660Z,12.70
2017-10-21T00:22:19.087Z,12.20
2017-10-21T00:24:46.528Z,11.20
2017-10-21T00:27:13.952Z,12.07
2017-10-21T00:29:41.387Z,11.40
2017-10-21T00:32:08.826Z,12.00
2017-10-21T00:34:36.248Z,10.90
2017-10-21T00:37:03.668Z,11.90
2017-10-21T00:39:31.133Z,12.37
2017-10-21T00:41:58.557Z,11.10
2017-10-21T00:44:26.009Z,10.50
2017-10-21T00:46:53.457Z,11.30
2017-10-21T00:49:20.886Z,11.23
2017-10-21T00:51:48.318Z,12.27
2017-10-21T00:54:15.765Z,12.40
2017-10-21T00:56:43.204Z,11.57
2017-10-21T00:59:10.640Z,11.30
2017-10-21T01:01:38.084Z,11.50
2017-10-21T01:04:05.521Z,11.33
2017-10-21T01:06:32.971Z,11.50
2017-10-21T01:09:00.397Z,11.80
2017-10-21T01:11:27.833Z,13.30
2017-10-21T01:13:55.273Z,12.40
2017-10-21T01:16:22.705Z,12.00
2017-10-21T01:18:50.156Z,11.20
2017-10-21T01:21:17.579Z,12.00
2017-10-21T01:23:44.993Z,12.80
2017-10-21T01:26:12.437Z,12.10
2017-10-21T01:28:39.878Z,12.43
2017-10-21T01:31:07.296Z,13.27
2017-10-21T01:33:34.733Z,12.40
2017-10-21T01:36:02.158Z,12.20
2017-10-21T01:38:29.601Z,11.20
2017-10-21T01:40:57.045Z,12.50
2017-10-21T01:43:24.477Z,12.57
2017-10-21T01:45:51.909Z,12.60
2017-10-21T01:48:19.345Z,12.83
2017-10-21T01:50:46.777Z,13.77
2017-10-21T01:53:14.198Z,12.17
2017-10-21T01:55:41.645Z,12.10
2017-10-21T01:58:09.065Z,12.00
2017-10-21T02:00:36.488Z,13.37
2017-10-21T02:03:03.925Z,14.10
2017-10-21T02:05:31.354Z,13.50
2017-10-21T02:07:58.777Z,14.83
2017-10-21T02:10:26.217Z,15.23
2017-10-21T02:12:53.641Z,14.73
2017-10-21T02:15:21.065Z,15.83
2017-10-21T02:17:48.508Z,15.93
2017-10-21T02:20:15.934Z,16.53
2017-10-21T02:22:43.357Z,16.70
2017-10-21T02:25:10.837Z,15.50
2017-10-21T02:27:38.256Z,15.50
2017-10-21T02:30:05.688Z,15.87
2017-10-21T02:32:33.132Z,15.27
2017-10-21T02:35:00.579Z,15.50
2017-10-21T02:37:27.993Z,15.63
2017-10-21T02:39:55.448Z,14.57
2017-10-21T02:42:22.865Z,15.43
2017-10-21T02:44:52.621Z,16.60
2017-10-21T02:47:20.057Z,14.60
2017-10-21T02:49:47.479Z,16.83
2017-10-21T02:52:14.903Z,15.47
2017-10-21T02:54:42.332Z,14.83
2017-10-21T02:57:09.759Z,14.30
2017-10-21T02:59:37.185Z,16.07
2017-10-21T03:02:04.625Z,15.10
2017-10-21T03:04:32.045Z,16.17
2017-10-21T03:06:59.468Z,16.30
2017-10-21T03:09:26.911Z,16.17
2017-10-21T03:11:54.333Z,17.23
2017-10-21T03:14:21.752Z,15.63
2017-10-21T03:16:49.200Z,17.30
2017-10-21T03:19:16.617Z,16.70
2017-10-21T03:21:44.037Z,16.90
2017-10-21T03:24:11.481Z,16.70
2017-10-21T03:26:38.901Z,15.70
2017-10-21T03:29:06.320Z,15.50
2017-10-21T03:31:33.767Z,16.00
2017-10-21T03:34:01.204Z,16.53
2017-10-21T03:36:28.624Z,16.60
2017-10-21T03:38:56.071Z,16.23
2017-10-21T03:41:23.484Z,17.10
2017-10-21T03:43:50.906Z,17.13
2017-10-21T03:46:18.350Z,17.73
2017-10-21T03:48:45.778Z,19.83
2017-10-21T03:51:13.241Z,19.00
2017-10-21T03:53:40.676Z,18.37
2017-10-21T03:56:08.097Z,18.37
2017-10-21T03:58:35.525Z,18.17
2017-10-21T04:01:02.969Z,16.90
2017-10-21T04:03:30.379Z,17.33
2017-10-21T04:05:57.800Z,16.80
2017-10-21T04:08:25.246Z,17.50
2017-10-21T04:10:52.660Z,16.70
2017-10-21T04:13:20.093Z,17.00
2017-10-21T04:15:47.529Z,17.80
2017-10-21T04:18:14.948Z,17.77
2017-10-21T04:20:42.373Z,16.90
2017-10-21T04:23:09.822Z,16.03
2017-10-21T04:25:37.249Z,15.30
2017-10-21T04:28:04.672Z,16.10
2017-10-21T04:30:32.114Z,16.00
2017-10-21T04:32:59.537Z,15.43
2017-10-21T04:35:26.961Z,16.80
2017-10-21T04:37:54.391Z,16.27
2017-10-21T04:40:21.808Z,17.13
2017-10-21T04:42:49.237Z,16.63
2017-10-21T04:45:16.686Z,17.10
2017-10-21T04:47:44.108Z,16.20
2017-10-21T04:50:11.529Z,18.00
2017-10-21T04:52:38.968Z,17.90
2017-10-21T04:55:06.397Z,18.40
2017-10-21T04:57:33.825Z,18.77
2017-10-21T05:00:01.265Z,16.90
2017-10-21T05:02:28.688Z,18.17
2017-10-21T05:04:56.109Z,17.80
2017-10-21T05:07:23.545Z,17.10
2017-10-21T05:09:50.969Z,17.73
2017-10-21T05:12:18.384Z,17.10
2017-10-21T05:14:45.827Z,18.10
2017-10-21T05:17:13.258Z,18.77
2017-10-21T05:19:40.689Z,18.40
2017-10-21T05:22:08.128Z,18.93
2017-10-21T05:24:35.551Z,18.77
2017-10-21T05:27:02.972Z,17.80
2017-10-21T05:29:30.407Z,18.47
2017-10-21T05:31:57.827Z,19.57
2017-10-21T05:34:25.254Z,18.20
2017-10-21T05:36:52.701Z,18.40
2017-10-21T05:39:20.116Z,20.97
2017-10-21T05:41:47.541Z,20.53
2017-10-21T05:44:14.978Z,21.30
2017-10-21T05:46:42.397Z,21.20
2017-10-21T05:49:09.823Z,21.30
2017-10-21T05:51:37.267Z,20.40
2017-10-21T05:54:04.689Z,20.63
2017-10-21T05:56:32.112Z,22.13
2017-10-21T05:58:59.559Z,21.53
2017-10-21T06:01:26.990Z,21.80
2017-10-21T06:03:54.413Z,21.97
2017-10-21T06:06:21.852Z,20.17
2017-10-21T06:08:49.280Z,21.00
2017-10-21T06:11:16.724Z,20.63
2017-10-21T06:13:44.164Z,21.70
2017-10-21T06:16:11.617Z,21.33
2017-10-21T06:18:39.044Z,21.33
2017-10-21T06:21:06.490Z,22.50
2017-10-21T06:23:33.904Z,22.70
2017-10-21T06:26:01.337Z,22.80
2017-10-21T06:28:28.768Z,24.33
2017-10-21T06:30:56.193Z,23.70
2017-10-21T06:33:23.622Z,24.40
2017-10-21T06:35:51.061Z,22.33
2017-10-21T06:38:18.480Z,21.30
2017-10-21T06:40:45.911Z,22.07
2017-10-21T06:43:13.351Z,21.43
2017-10-21T06:45:40.773Z,21.70
2017-10-21T06:48:08.205Z,22.47
2017-10-21T06:50:35.637Z,21.70
2017-10-21T06:53:03.052Z,21.47
2017-10-21T06:55:30.494Z,23.40
2017-10-21T06:57:57.928Z,20.00
2017-10-21T07:00:25.340Z,22.00
2017-10-21T07:02:52.786Z,24.77
2017-10-21T07:05:20.201Z,24.60
2017-10-21T07:07:47.621Z,25.40
2017-10-21T07:10:15.057Z,26.10
2017-10-21T07:12:42.483Z,25.90
2017-10-21T07:15:09.904Z,26.03
2017-10-21T07:17:37.341Z,25.73
2017-10-21T07:20:04.769Z,25.83
2017-10-21T07:22:32.180Z,26.63
2017-10-21T07:24:59.624Z,25.17
2017-10-21T07:27:27.049Z,27.10
2017-10-21T07:29:54.514Z,26.77
2017-10-21T07:32:22.762Z,26.60
2017-10-21T07:34:50.184Z,26.60
2017-10-21T07:37:17.600Z,25.47
2017-10-21T07:39:45.041Z,27.50
2017-10-21T07:42:12.461Z,26.30
2017-10-21T07:44:39.876Z,27.67
2017-10-21T07:47:07.312Z,27.70
2017-10-21T07:49:34.724Z,25.23
2017-10-21T07:52:02.148Z,26.30
2017-10-21T07:54:29.589Z,24.50
2017-10-21T07:56:57.012Z,23.63
2017-10-21T07:59:24.439Z,22.57
2017-10-21T08:01:51.872Z,22.90
2017-10-21T08:04:19.293Z,19.30
2017-10-21T08:06:46.718Z,21.37
2017-10-21T08:09:14.149Z,21.60
2017-10-21T08:11:41.591Z,18.60
2017-10-21T08:14:09.009Z,20.10
2017-10-21T08:16:36.473Z,17.77
2017-10-21T08:19:03.888Z,18.33
2017-10-21T08:21:31.312Z,16.07
2017-10-21T08:23:58.752Z,18.03
2017-10-21T08:26:26.175Z,15.90
2017-10-21T08:28:53.597Z,15.40
2017-10-21T08:31:21.036Z,14.80
2017-10-21T08:33:48.456Z,15.27
2017-10-21T08:36:15.876Z,15.33
2017-10-21T08:38:43.317Z,15.60
2017-10-21T08:41:10.797Z,15.17
2017-10-21T08:43:38.225Z,14.53
2017-10-21T08:46:05.668Z,14.93
2017-10-21T08:48:33.097Z,13.47
2017-10-21T08:51:00.519Z,14.10
2017-10-21T08:53:27.962Z,13.40
2017-10-21T08:55:55.389Z,12.90
2017-10-21T08:58:22.813Z,13.97
2017-10-21T09:00:50.250Z,12.80
2017-10-21T09:03:17.668Z,13.23
2017-10-21T09:05:45.097Z,11.40
2017-10-21T09:08:12.537Z,11.47
2017-10-21T09:10:39.960Z,12.40
2017-10-21T09:13:07.382Z,11.33
2017-10-21T09:15:34.813Z,10.70
2017-10-21T09:18:02.245Z,10.10
2017-10-21T09:20:29.668Z,10.87
2017-10-21T09:22:57.173Z,10.07
2017-10-21T09:25:24.612Z,9.50
2017-10-21T09:27:52.042Z,10.73
2017-10-21T09:30:19.481Z,9.37
2017-10-21T09:32:46.909Z,10.47
2017-10-21T09:35:14.324Z,9.70
2017-10-21T09:37:41.757Z,9.57
2017-10-21T09:40:09.181Z,9.53
2017-10-21T09:42:36.597Z,8.50
2017-10-21T09:45:04.103Z,9.70
2017-10-21T09:47:31.516Z,9.40
2017-10-21T09:49:58.933Z,8.63
2017-10-21T09:52:26.370Z,7.77
2017-10-21T09:54:53.801Z,8.53
2017-10-21T09:57:21.232Z,9.17
2017-10-21T09:59:48.656Z,9.07
2017-10-21T10:02:16.076Z,9.40
2017-10-21T10:04:43.513Z,9.20
2017-10-21T10:07:10.938Z,9.73
2017-10-21T10:09:38.352Z,9.87
2017-10-21T10:12:05.788Z,10.73
2017-10-21T10:14:33.208Z,10.30
2017-10-21T10:17:00.637Z,10.30
2017-10-21T10:19:28.080Z,11.13
2017-10-21T10:21:55.495Z,11.87
2017-10-21T10:24:22.921Z,10.87
2017-10-21T10:26:50.374Z,10.30
2017-10-21T10:29:17.783Z,9.73
2017-10-21T10:31:45.205Z,10.90
2017-10-21T10:34:12.650Z,11.80
2017-10-21T10:36:40.071Z,11.20
2017-10-21T10:39:07.489Z,11.50
2017-10-21T10:41:34.925Z,12.07
2017-10-21T10:44:02.357Z,10.30
2017-10-21T10:46:29.782Z,11.10
2017-10-21T10:48:57.225Z,11.97
2017-10-21T10:51:24.646Z,11.07
2017-10-21T10:53:52.060Z,11.40
2017-10-21T10:56:19.501Z,10.27
2017-10-21T10:58:46.932Z,11.50
2017-10-21T11:01:14.374Z,10.30
2017-10-21T11:03:41.820Z,11.37
2017-10-21T11:06:09.249Z,10.90
2017-10-21T11:08:36.668Z,10.10
2017-10-21T11:11:04.100Z,10.50
2017-10-21T11:13:31.524Z,10.50
2017-10-21T11:15:58.945Z,10.77
2017-10-21T11:18:26.389Z,11.37
2017-10-21T11:20:53.809Z,10.20
2017-10-21T11:23:21.228Z,10.37
2017-10-21T11:25:48.677Z,10.07
2017-10-21T11:28:16.096Z,9.57
2017-10-21T11:30:43.513Z,9.90
2017-10-21T11:33:10.952Z,10.00
2017-10-21T11:35:38.380Z,10.40
2017-10-21T11:38:05.796Z,9.80
2017-10-21T11:40:33.233Z,9.60
2017-10-21T11:43:00.656Z,10.93
2017-10-21T11:45:28.076Z,9.83
2017-10-21T11:47:55.517Z,10.40
2017-10-21T11:50:22.942Z,10.90
2017-10-21T11:52:50.365Z,10.37
2017-10-21T11:55:17.802Z,8.57
2017-10-21T11:57:45.220Z,9.60
2017-10-21T12:00:12.640Z,9.90
2017-10-21T12:02:40.078Z,9.23
2017-10-21T12:05:07.490Z,9.23
2017-10-21T12:07:34.904Z,9.30
2017-10-21T12:10:02.350Z,10.93
2017-10-21T12:12:29.766Z,10.97
2017-10-21T12:14:57.185Z,9.50
2017-10-21T12:17:24.615Z,9.80
2017-10-21T12:19:52.045Z,10.00
2017-10-21T12:22:19.474Z,10.80
2017-10-21T12:24:46.908Z,9.97
2017-10-21T12:27:14.540Z,10.00
2017-10-21T12:29:41.965Z,10.47
2017-10-21T12:32:09.409Z,10.23
2017-10-21T12:34:36.885Z,10.90
2017-10-21T12:37:04.308Z,9.97
2017-10-21T12:39:31.740Z,10.27
2017-10-21T12:41:59.161Z,9.10
2017-10-21T12:44:26.585Z,11.00
2017-10-21T12:46:54.044Z,10.53
2017-10-21T12:49:21.474Z,10.17
2017-10-21T12:51:48.888Z,9.70
2017-10-21T12:54:16.325Z,9.73
2017-10-21T12:56:43.744Z,9.57
2017-10-21T12:59:11.169Z,10.53
2017-10-21T13:01:38.609Z,9.03
2017-10-21T13:04:06.029Z,9.43
2017-10-21T13:06:33.441Z,9.03
2017-10-21T13:09:00.877Z,9.30
2017-10-21T13:11:28.305Z,10.10
2017-10-21T13:13:55.720Z,9.73
2017-10-21T13:16:23.156Z,9.90
2017-10-21T13:18:50.576Z,10.90
2017-10-21T13:21:17.996Z,11.07
2017-10-21T13:23:45.436Z,10.13
2017-10-21T13:26:12.861Z,11.20
2017-10-21T13:28:40.281Z,11.90
2017-10-21T13:31:07.729Z,11.07
2017-10-21T13:33:35.158Z,12.20
2017-10-21T13:36:02.604Z,11.10
2017-10-21T13:38:30.048Z,10.00
2017-10-21T13:40:57.468Z,11.33
2017-10-21T13:43:24.896Z,12.07
2017-10-21T13:45:52.332Z,12.07
2017-10-21T13:48:19.752Z,11.90
2017-10-21T13:50:47.182Z,12.57
2017-10-21T13:53:14.626Z,13.20
2017-10-21T13:55:42.050Z,13.07
2017-10-21T13:58:09.474Z,13.00
2017-10-21T14:00:36.914Z,13.37
2017-10-21T14:03:04.341Z,14.70
2017-10-21T14:05:31.762Z,13.83
2017-10-21T14:07:59.213Z,14.73
2017-10-21T14:10:26.640Z,14.87
2017-10-21T14:12:54.052Z,14.97
2017-10-21T14:15:21.496Z,14.87
2017-10-21T14:17:48.920Z,15.23
2017-10-21T14:20:16.349Z,14.60
2017-10-21T14:22:43.780Z,14.90
2017-10-21T14:25:11.225Z,14.90
2017-10-21T14:27:38.656Z,14.30
2017-10-21T14:30:06.097Z,15.53
2017-10-21T14:32:33.520Z,14.40
2017-10-21T14:35:00.960Z,15.40
2017-10-21T14:37:28.382Z,15.00
2017-10-21T14:39:55.800Z,13.70
2017-10-21T14:42:23.265Z,14.93
2017-10-21T14:44:50.689Z,14.77
2017-10-21T14:47:18.126Z,17.13
2017-10-21T14:49:45.567Z,18.70
2017-10-21T14:52:13.005Z,18.30
2017-10-21T14:54:40.425Z,16.50
2017-10-21T14:57:07.870Z,15.87
2017-10-21T14:59:35.293Z,15.63
2017-10-21T15:02:02.720Z,15.13
2017-10-21T15:04:30.156Z,14.43
2017-10-21T15:06:57.581Z,17.07
2017-10-21T15:09:25.005Z,15.90
2017-10-21T15:11:52.449Z,17.50
2017-10-21T15:14:19.866Z,18.70
2017-10-21T15:16:47.288Z,18.50
2017-10-21T15:19:14.739Z,17.50
2017-10-21T15:21:42.160Z,17.60
2017-10-21T15:24:09.600Z,18.23
2017-10-21T15:26:37.038Z,16.30
2017-10-21T15:29:04.485Z,17.33
2017-10-21T15:31:32.021Z,15.30
2017-10-21T15:33:59.445Z,18.50
2017-10-21T15:36:26.889Z,17.87
2017-10-21T15:38:54.321Z,19.93
2017-10-21T15:41:21.740Z,21.10
2017-10-21T15:43:49.220Z,21.07
2017-10-21T15:49:47.016Z,18.30
2017-10-21T15:52:14.436Z,18.63
2017-10-21T15:54:41.883Z,19.80
2017-10-21T15:57:09.318Z,19.33
2017-10-21T15:59:36.737Z,17.70
2017-10-21T16:02:04.170Z,15.57
2017-10-21T16:04:31.617Z,17.17
2017-10-21T16:06:59.041Z,16.60
2017-10-21T16:09:26.457Z,16.10
2017-10-21T16:11:53.906Z,16.10
2017-10-21T16:14:21.329Z,15.83
2017-10-21T16:16:48.753Z,15.80
2017-10-21T16:19:16.290Z,14.80
2017-10-21T16:21:43.714Z,16.40
2017-10-21T16:24:11.142Z,15.00
2017-10-21T16:26:53.406Z,15.60
2017-10-21T16:29:22.852Z,13.93
2017-10-21T16:31:50.317Z,14.10
2017-10-21T16:34:17.748Z,14.60
2017-10-21T16:36:46.130Z,12.07
2017-10-21T16:39:13.660Z,12.13
2017-10-21T16:41:44.170Z,10.00
2017-10-21T16:44:15.111Z,8.47
2017-10-21T16:46:43.579Z,8.53
2017-10-21T16:49:11.001Z,6.80
2017-10-21T16:51:38.438Z,5.87
2017-10-21T16:54:05.852Z,4.63
2017-10-21T16:56:33.789Z,4.87
2017-10-21T16:59:01.222Z,4.43
2017-10-21T17:01:28.662Z,5.30
2017-10-21T17:03:56.080Z,4.60
2017-10-21T17:06:23.531Z,4.40
2017-10-21T17:08:50.940Z,3.93
2017-10-21T17:11:18.378Z,3.70
2017-10-21T17:13:45.811Z,4.40
2017-10-21T17:16:13.228Z,4.80
2017-10-21T17:18:40.653Z,4.00
2017-10-21T17:21:08.073Z,4.10
2017-10-21T17:23:35.488Z,5.50
2017-10-21T17:26:02.924Z,4.07
2017-10-21T17:28:30.340Z,4.60
2017-10-21T17:30:57.747Z,4.30
2017-10-21T17:33:25.181Z,4.53
2017-10-21T17:35:52.592Z,4.83
2017-10-21T17:38:24.952Z,4.80
2017-10-21T17:40:52.388Z,4.43
2017-10-21T17:43:19.809Z,4.90
2017-10-21T17:45:47.236Z,4.43
2017-10-21T17:48:14.660Z,4.77
2017-10-21T17:50:42.085Z,4.60
2017-10-21T17:53:09.501Z,4.70
2017-10-21T17:55:36.940Z,4.33
2017-10-21T17:58:04.347Z,5.30
2017-10-21T18:00:31.760Z,5.33
2017-10-21T18:02:59.200Z,5.73
2017-10-21T18:05:26.612Z,4.70
2017-10-21T18:07:54.019Z,5.23
2017-10-21T18:10:21.460Z,5.70
2017-10-21T18:12:48.878Z,5.33
2017-10-21T18:15:16.297Z,4.87
2017-10-21T18:17:43.737Z,4.70
2017-10-21T18:20:11.157Z,4.97
2017-10-21T18:22:38.572Z,4.57
2017-10-21T18:25:06.001Z,4.53
2017-10-21T18:27:33.421Z,5.03
2017-10-21T18:30:00.896Z,4.30
2017-10-21T18:32:28.330Z,4.47
2017-10-21T18:34:55.744Z,4.17
2017-10-21T18:37:23.161Z,5.70
2017-10-21T18:39:50.592Z,5.63
2017-10-21T18:42:18.017Z,4.93
2017-10-21T18:44:45.433Z,4.87
2017-10-21T18:47:12.860Z,4.33
2017-10-21T18:49:40.285Z,5.40
2017-10-21T18:52:09.045Z,5.10
2017-10-21T18:54:36.498Z,4.70
2017-10-21T18:57:03.946Z,5.20
2017-10-21T18:59:31.366Z,7.90
2017-10-21T19:01:58.821Z,6.73
2017-10-21T19:04:26.239Z,8.20
2017-10-21T19:06:53.668Z,7.83
2017-10-21T19:09:21.113Z,7.90
2017-10-21T19:11:48.544Z,9.23
2017-10-21T19:14:15.957Z,5.67
2017-10-21T19:16:43.392Z,4.60
2017-10-21T19:19:11.054Z,4.33
2017-10-21T19:21:38.503Z,4.60
2017-10-21T19:24:05.961Z,4.80
2017-10-21T19:26:33.486Z,4.77
2017-10-21T19:29:01.031Z,5.63
2017-10-21T19:31:28.486Z,5.50
2017-10-21T19:33:55.939Z,4.93
2017-10-21T19:36:23.401Z,5.30
2017-10-21T19:38:50.826Z,4.47
2017-10-21T19:41:18.250Z,5.17
2017-10-21T19:43:45.706Z,5.07
2017-10-21T19:46:13.132Z,5.30
2017-10-21T19:48:40.552Z,5.37
2017-10-21T19:51:08.025Z,5.83
2017-10-21T19:53:35.469Z,6.30
2017-10-21T19:56:02.912Z,7.60
2017-10-21T19:58:30.355Z,5.00
2017-10-21T20:00:57.786Z,5.50
2017-10-21T20:03:25.213Z,4.97
2017-10-21T20:05:52.645Z,5.03
2017-10-21T20:08:20.070Z,4.70
2017-10-21T20:10:47.450Z,5.20
2017-10-21T20:13:14.918Z,5.30
2017-10-21T20:15:42.357Z,5.33
2017-10-21T20:18:09.781Z,5.07
2017-10-21T20:20:37.221Z,4.73
2017-10-21T20:23:04.645Z,5.20
2017-10-21T20:25:32.069Z,5.57
2017-10-21T20:27:59.500Z,5.80
2017-10-21T20:30:26.925Z,5.80
2017-10-21T20:32:54.354Z,5.70
2017-10-21T20:35:21.815Z,5.63
2017-10-21T20:37:49.225Z,5.73
2017-10-21T20:40:16.645Z,5.90
2017-10-21T20:42:44.087Z,5.23
2017-10-21T20:45:11.535Z,5.40
2017-10-21T20:47:38.953Z,5.63
2017-10-21T20:50:06.401Z,5.40
2017-10-21T20:52:33.836Z,5.50
2017-10-21T20:55:01.298Z,5.50
2017-10-21T20:57:28.750Z,5.30
2017-10-21T20:59:56.185Z,5.93
2017-10-21T21:02:23.597Z,6.10
2017-10-21T21:04:51.048Z,6.37
2017-10-21T21:07:18.467Z,6.40
2017-10-21T21:09:45.884Z,5.90
2017-10-21T21:12:13.334Z,6.00
2017-10-21T21:14:40.765Z,5.90
2017-10-21T21:17:08.193Z,6.53
2017-10-21T21:19:35.619Z,5.43
2017-10-21T21:22:03.044Z,6.57
2017-10-21T21:24:30.464Z,5.93
2017-10-21T21:26:57.901Z,5.67
2017-10-21T21:29:25.318Z,4.97
2017-10-21T21:31:52.745Z,5.20
2017-10-21T21:34:20.186Z,5.50
2017-10-21T21:36:47.617Z,5.37
2017-10-21T21:39:15.067Z,5.30
2017-10-21T21:41:42.828Z,5.50
2017-10-21T21:44:10.262Z,5.03
2017-10-21T21:46:37.686Z,6.30
2017-10-21T21:49:05.126Z,5.20
2017-10-21T21:51:32.549Z,5.57
2017-10-21T21:53:59.961Z,5.70
2017-10-21T21:56:27.399Z,6.00
2017-10-21T21:58:54.837Z,5.20
2017-10-21T22:01:22.257Z,5.33
2017-10-21T22:03:49.689Z,4.63
2017-10-21T22:06:17.110Z,5.47
2017-10-21T22:08:44.528Z,5.40
2017-10-21T22:11:11.966Z,4.93
2017-10-21T22:13:39.381Z,5.27
2017-10-21T22:16:06.804Z,5.83
2017-10-21T22:18:34.241Z,6.20
2017-10-21T22:21:01.653Z,5.80
2017-10-21T22:23:29.073Z,4.90
2017-10-21T22:25:56.513Z,5.67
2017-10-21T22:28:23.928Z,5.40
2017-10-21T22:30:51.356Z,6.23
2017-10-21T22:33:18.793Z,6.30
2017-10-21T22:35:46.220Z,5.30
2017-10-21T22:38:13.638Z,5.97
2017-10-21T22:40:41.081Z,6.60
2017-10-21T22:43:08.508Z,5.77
2017-10-21T22:45:35.920Z,4.80
2017-10-21T22:48:03.348Z,5.10
2017-10-21T22:50:30.768Z,6.20
2017-10-21T22:52:58.189Z,5.77
2017-10-21T22:55:25.621Z,5.00
2017-10-21T22:57:53.040Z,5.43
2017-10-21T23:00:20.452Z,5.90
2017-10-21T23:02:47.888Z,5.37
2017-10-21T23:05:15.305Z,4.50
2017-10-21T23:07:42.717Z,5.73
2017-10-21T23:10:10.152Z,5.20
2017-10-21T23:12:37.568Z,5.60
2017-10-21T23:15:04.983Z,5.27
2017-10-21T23:17:32.422Z,4.80
2017-10-21T23:19:59.839Z,5.30
2017-10-21T23:22:27.264Z,4.80
2017-10-21T23:24:54.697Z,5.80
2017-10-21T23:27:22.114Z,6.00
2017-10-21T23:29:49.532Z,5.33
2017-10-21T23:32:16.957Z,4.90
2017-10-21T23:34:44.377Z,5.57
2017-10-21T23:37:11.801Z,5.10
2017-10-21T23:39:39.233Z,5.00
2017-10-21T23:42:06.653Z,5.10
2017-10-21T23:44:34.085Z,4.50
2017-10-21T23:47:01.517Z,5.60
2017-10-21T23:49:28.964Z,5.03
2017-10-21T23:51:56.401Z,4.47
2017-10-21T23:54:23.809Z,4.50
2017-10-21T23:56:51.241Z,4.00
2017-10-21T23:59:18.677Z,4.90
